createdAt,value
2023-05-18T00:01:54.253Z,0.40
2023-05-18T00:04:57.034Z,0.40
2023-05-18T00:08:00.568Z,0.52
2023-05-18T00:11:04.474Z,0.70
2023-05-18T00:14:08.291Z,0.53
2023-05-18T00:17:11.312Z,0.67
2023-05-18T00:20:13.779Z,0.50
2023-05-18T00:23:16.826Z,0.70
2023-05-18T00:26:19.371Z,0.70
2023-05-18T00:29:22.147Z,0.70
2023-05-18T00:32:24.585Z,0.80
2023-05-18T00:35:27.674Z,0.73
2023-05-18T00:38:30.179Z,0.98
2023-05-18T00:41:33.707Z,0.77
2023-05-18T00:44:36.116Z,0.67
2023-05-18T00:47:44.306Z,0.70
2023-05-18T00:50:46.811Z,0.90
2023-05-18T00:53:51.161Z,0.77
2023-05-18T00:56:53.704Z,1.80
2023-05-18T00:59:57.900Z,1.20
2023-05-18T01:03:00.582Z,0.83
2023-05-18T01:06:05.808Z,1.12
2023-05-18T01:09:11.870Z,1.00
2023-05-18T01:12:36.996Z,1.05
2023-05-18T01:15:40.062Z,1.40
2023-05-18T01:18:58.987Z,1.30
2023-05-18T01:22:18.023Z,1.20
2023-05-18T01:25:50.325Z,1.02
2023-05-18T01:28:54.550Z,1.00
2023-05-18T01:31:59.324Z,1.13
2023-05-18T01:35:03.772Z,1.00
2023-05-18T01:38:06.513Z,0.90
2023-05-18T01:41:18.166Z,1.12
2023-05-18T01:44:26.807Z,0.80
2023-05-18T01:47:31.961Z,1.03
2023-05-18T01:50:43.415Z,0.90
2023-05-18T01:53:57.686Z,1.08
2023-05-18T01:57:01.379Z,1.05
2023-05-18T02:00:08.052Z,1.10
2023-05-18T02:03:18.395Z,1.00
2023-05-18T02:06:21.387Z,1.00
2023-05-18T02:09:23.920Z,0.93
2023-05-18T02:12:29.954Z,1.37
2023-05-18T02:15:32.633Z,1.00
2023-05-18T02:18:36.466Z,1.20
2023-05-18T02:21:39.580Z,1.33
2023-05-18T02:24:42.273Z,1.20
2023-05-18T02:27:44.823Z,1.20
2023-05-18T02:30:50.273Z,1.30
2023-05-18T02:33:53.364Z,1.60
2023-05-18T02:37:05.440Z,1.07
2023-05-18T02:40:13.709Z,1.00
2023-05-18T02:43:16.621Z,1.30
2023-05-18T02:46:19.099Z,1.40
2023-05-18T02:49:21.921Z,1.40
2023-05-18T02:52:24.498Z,1.37
2023-05-18T02:55:29.017Z,1.30
2023-05-18T02:58:35.910Z,1.30
2023-05-18T03:01:41.115Z,1.37
2023-05-18T03:04:47.571Z,1.10
2023-05-18T03:07:54.434Z,1.10
2023-05-18T03:10:57.924Z,1.17
2023-05-18T03:14:00.608Z,1.08
2023-05-18T03:17:05.975Z,0.90
2023-05-18T03:20:14.582Z,1.27
2023-05-18T03:23:17.198Z,0.80
2023-05-18T03:26:20.046Z,1.00
2023-05-18T03:29:22.909Z,1.00
2023-05-18T03:32:28.472Z,0.93
2023-05-18T03:35:31.309Z,0.83
2023-05-18T03:38:34.390Z,1.00
2023-05-18T03:41:40.012Z,0.98
2023-05-18T03:44:43.419Z,0.88
2023-05-18T03:47:46.391Z,1.12
2023-05-18T03:50:49.312Z,0.83
2023-05-18T03:53:52.364Z,1.00
2023-05-18T03:56:56.454Z,1.10
2023-05-18T03:59:59.120Z,0.95
2023-05-18T04:03:03.375Z,1.20
2023-05-18T04:06:10.424Z,1.13
2023-05-18T04:09:17.343Z,0.90
2023-05-18T04:12:20.063Z,1.15
2023-05-18T04:15:22.879Z,1.10
2023-05-18T04:18:30.460Z,1.00
2023-05-18T04:21:36.374Z,1.03
2023-05-18T04:24:51.336Z,0.60
2023-05-18T04:27:55.235Z,0.90
2023-05-18T04:30:58.870Z,1.10
2023-05-18T04:34:01.343Z,1.12
2023-05-18T04:37:05.967Z,0.80
2023-05-18T04:40:14.220Z,0.80
2023-05-18T04:43:18.823Z,0.90
2023-05-18T04:46:24.293Z,0.98
2023-05-18T04:49:28.317Z,1.05
2023-05-18T04:52:30.933Z,1.10
2023-05-18T04:55:37.356Z,1.37
2023-05-18T04:58:41.650Z,1.10
2023-05-18T05:01:44.964Z,1.52
2023-05-18T05:04:47.427Z,1.50
2023-05-18T05:07:51.795Z,1.37
2023-05-18T05:10:54.378Z,1.40
2023-05-18T05:13:57.379Z,1.55
2023-05-18T05:16:59.823Z,1.75
2023-05-18T05:20:03.452Z,1.62
2023-05-18T05:23:07.362Z,1.93
2023-05-18T05:26:14.242Z,2.10
2023-05-18T05:29:16.934Z,1.87
2023-05-18T05:32:20.051Z,2.20
2023-05-18T05:35:22.991Z,2.47
2023-05-18T05:38:26.790Z,2.27
2023-05-18T05:41:32.455Z,2.30
2023-05-18T05:44:37.112Z,2.47
2023-05-18T05:47:42.592Z,2.67
2023-05-18T05:50:45.983Z,2.70
2023-05-18T05:53:49.552Z,2.60
2023-05-18T05:56:52.889Z,3.10
2023-05-18T05:59:55.375Z,3.97
2023-05-18T06:02:58.981Z,3.70
2023-05-18T06:06:03.516Z,2.97
2023-05-18T06:09:06.316Z,3.43
2023-05-18T06:12:09.666Z,2.90
2023-05-18T06:15:12.472Z,2.65
2023-05-18T06:18:15.458Z,3.37
2023-05-18T06:21:18.034Z,2.97
2023-05-18T06:24:21.102Z,2.70
2023-05-18T06:27:24.283Z,3.30
2023-05-18T06:30:27.719Z,3.50
2023-05-18T06:33:31.168Z,3.40
2023-05-18T06:36:34.370Z,3.00
2023-05-18T06:39:39.109Z,3.60
2023-05-18T06:42:44.377Z,3.40
2023-05-18T06:45:56.518Z,3.40
2023-05-18T06:49:02.944Z,3.62
2023-05-18T06:52:06.911Z,3.75
2023-05-18T06:55:09.849Z,3.27
2023-05-18T06:58:12.423Z,3.40
2023-05-18T07:01:17.950Z,3.70
2023-05-18T07:04:20.748Z,3.80
2023-05-18T07:07:23.448Z,4.12
2023-05-18T07:10:26.237Z,3.77
2023-05-18T07:13:29.050Z,4.10
2023-05-18T07:16:35.662Z,4.00
2023-05-18T07:19:38.771Z,4.80
2023-05-18T07:22:41.463Z,3.70
2023-05-18T07:25:46.410Z,4.30
2023-05-18T07:28:51.695Z,4.00
2023-05-18T07:31:54.953Z,3.58
2023-05-18T07:34:57.524Z,4.28
2023-05-18T07:38:00.213Z,3.40
2023-05-18T07:41:02.840Z,3.33
2023-05-18T07:44:05.765Z,3.33
2023-05-18T07:47:08.457Z,3.30
2023-05-18T07:50:11.631Z,3.40
2023-05-18T07:53:14.097Z,3.15
2023-05-18T07:56:17.070Z,3.47
2023-05-18T07:59:28.027Z,3.30
2023-05-18T08:02:33.537Z,3.33
2023-05-18T08:05:36.977Z,3.12
2023-05-18T08:08:39.438Z,2.80
2023-05-18T08:11:43.379Z,3.40
2023-05-18T08:14:46.143Z,3.00
2023-05-18T08:17:49.102Z,3.50
2023-05-18T08:20:54.164Z,3.20
2023-05-18T08:23:57.372Z,2.72
2023-05-18T08:26:59.850Z,2.95
2023-05-18T08:30:02.934Z,2.87
2023-05-18T08:33:05.527Z,2.90
2023-05-18T08:36:09.110Z,2.80
2023-05-18T08:39:12.582Z,3.28
2023-05-18T08:42:45.658Z,2.70
2023-05-18T08:46:06.708Z,2.80
2023-05-18T08:49:11.058Z,3.05
2023-05-18T08:52:18.331Z,3.03
2023-05-18T08:55:22.945Z,2.85
2023-05-18T08:58:52.665Z,3.00
2023-05-18T09:01:55.730Z,3.27
2023-05-18T09:04:58.739Z,3.05
2023-05-18T09:08:03.984Z,3.40
2023-05-18T09:11:06.999Z,3.00
2023-05-18T09:14:09.833Z,2.60
2023-05-18T09:17:12.481Z,2.90
2023-05-18T09:20:17.007Z,3.00
2023-05-18T09:23:24.366Z,2.72
2023-05-18T09:26:27.767Z,3.03
2023-05-18T09:29:32.287Z,2.72
2023-05-18T09:32:37.174Z,3.27
2023-05-18T09:35:39.954Z,2.53
2023-05-18T09:38:46.923Z,2.85
2023-05-18T09:41:57.336Z,2.95
2023-05-18T09:45:00.222Z,2.75
2023-05-18T09:48:02.604Z,3.00
2023-05-18T09:51:07.087Z,2.80
2023-05-18T09:54:10.460Z,2.85
2023-05-18T09:57:14.146Z,2.75
2023-05-18T10:00:19.343Z,2.85
2023-05-18T10:03:24.267Z,2.70
2023-05-18T10:06:27.713Z,3.30
2023-05-18T10:09:31.608Z,3.03
2023-05-18T10:12:34.440Z,3.08
2023-05-18T10:15:38.108Z,3.22
2023-05-18T10:18:41.065Z,2.70
2023-05-18T10:21:44.892Z,2.85
2023-05-18T10:24:54.236Z,2.97
2023-05-18T10:28:00.175Z,2.90
2023-05-18T10:31:04.597Z,2.90
2023-05-18T10:34:09.419Z,2.93
2023-05-18T10:37:13.811Z,2.83
2023-05-18T10:40:17.900Z,2.97
2023-05-18T10:43:27.271Z,3.30
2023-05-18T10:46:31.251Z,2.70
2023-05-18T10:49:37.447Z,2.60
2023-05-18T10:52:53.299Z,3.00
2023-05-18T10:55:56.201Z,3.12
2023-05-18T10:58:59.282Z,2.80
2023-05-18T11:02:03.976Z,2.85
2023-05-18T11:05:11.050Z,3.00
2023-05-18T11:08:15.216Z,3.08
2023-05-18T11:11:19.421Z,2.70
2023-05-18T11:14:32.699Z,2.90
2023-05-18T11:17:35.582Z,2.90
2023-05-18T11:20:38.143Z,2.63
2023-05-18T11:23:40.794Z,2.90
2023-05-18T11:26:48.285Z,2.75
2023-05-18T11:29:57.804Z,2.35
2023-05-18T11:33:31.149Z,2.30
2023-05-18T11:36:46.827Z,2.40
2023-05-18T11:39:59.763Z,2.10
2023-05-18T11:43:03.990Z,2.33
2023-05-18T11:46:18.805Z,2.33
2023-05-18T11:49:25.693Z,2.17
2023-05-18T11:52:28.854Z,2.30
2023-05-18T11:55:39.166Z,2.65
2023-05-18T11:58:41.883Z,2.25
2023-05-18T12:01:45.358Z,2.28
2023-05-18T12:04:51.219Z,2.25
2023-05-18T12:07:54.565Z,2.33
2023-05-18T12:10:58.429Z,2.53
2023-05-18T12:14:01.438Z,2.30
2023-05-18T12:17:05.546Z,2.10
2023-05-18T12:20:13.329Z,2.20
2023-05-18T12:23:16.256Z,2.10
2023-05-18T12:26:20.704Z,1.83
2023-05-18T12:29:23.534Z,2.00
2023-05-18T12:32:27.206Z,1.65
2023-05-18T12:35:31.580Z,1.80
2023-05-18T12:38:34.481Z,1.53
2023-05-18T12:41:37.234Z,1.65
2023-05-18T12:44:39.898Z,1.60
2023-05-18T12:47:43.316Z,1.30
2023-05-18T12:50:47.080Z,1.42
2023-05-18T12:53:50.801Z,1.23
2023-05-18T12:57:02.099Z,1.45
2023-05-18T13:00:10.645Z,1.30
2023-05-18T13:03:16.807Z,1.40
2023-05-18T13:06:19.949Z,1.15
2023-05-18T13:09:22.416Z,1.30
2023-05-18T13:12:46.759Z,1.00
2023-05-18T13:15:52.289Z,1.40
2023-05-18T13:19:04.392Z,1.17
2023-05-18T13:22:07.068Z,1.20
2023-05-18T13:25:10.118Z,1.00
2023-05-18T13:28:15.095Z,1.25
2023-05-18T13:31:19.158Z,1.02
2023-05-18T13:34:21.677Z,1.65
2023-05-18T13:37:24.798Z,1.20
2023-05-18T13:40:29.973Z,1.10
2023-05-18T13:43:33.291Z,1.05
2023-05-18T13:46:38.363Z,1.02
2023-05-18T13:49:41.493Z,1.00
2023-05-18T13:52:44.423Z,1.10
2023-05-18T13:55:47.180Z,1.10
2023-05-18T13:58:50.310Z,0.98
2023-05-18T14:01:55.026Z,1.00
2023-05-18T14:04:59.857Z,0.88
2023-05-18T14:08:02.537Z,1.40
2023-05-18T14:11:05.355Z,0.90
2023-05-18T14:14:07.792Z,0.77
2023-05-18T14:17:13.999Z,0.90
2023-05-18T14:20:16.610Z,0.75
2023-05-18T14:23:19.368Z,0.90
2023-05-18T14:26:22.414Z,0.80
2023-05-18T14:29:25.666Z,0.90
2023-05-18T14:32:31.223Z,0.62
2023-05-18T14:35:34.674Z,1.00
2023-05-18T14:38:37.217Z,0.90
2023-05-18T14:41:39.894Z,0.77
2023-05-18T14:44:44.649Z,0.90
2023-05-18T14:47:48.177Z,1.20
2023-05-18T14:50:50.774Z,0.80
2023-05-18T14:53:53.493Z,0.90
2023-05-18T14:56:56.129Z,1.40
2023-05-18T15:00:00.529Z,1.10
2023-05-18T15:03:03.653Z,1.08
2023-05-18T15:06:06.683Z,1.23
2023-05-18T15:09:10.032Z,0.90
2023-05-18T15:12:12.697Z,0.90
2023-05-18T15:15:15.528Z,1.10
2023-05-18T15:18:18.415Z,1.15
2023-05-18T15:21:29.777Z,1.33
2023-05-18T15:24:32.480Z,1.30
2023-05-18T15:27:35.468Z,1.00
2023-05-18T15:30:38.381Z,1.33
2023-05-18T15:33:44.196Z,1.30
2023-05-18T15:36:47.417Z,1.37
2023-05-18T15:39:49.914Z,1.20
2023-05-18T15:42:52.762Z,1.47
2023-05-18T15:45:55.339Z,1.30
2023-05-18T15:48:58.725Z,1.40
2023-05-18T15:52:01.120Z,0.95
2023-05-18T15:55:04.106Z,1.15
2023-05-18T15:58:06.448Z,1.07
2023-05-18T16:01:09.205Z,1.30
2023-05-18T16:04:11.959Z,1.40
2023-05-18T16:07:23.834Z,1.00
2023-05-18T16:10:26.564Z,1.15
2023-05-18T16:13:29.040Z,1.00
2023-05-18T16:16:31.883Z,1.27
2023-05-18T16:19:34.886Z,1.00
2023-05-18T16:22:39.908Z,1.20
2023-05-18T16:25:42.388Z,1.30
2023-05-18T16:28:45.192Z,1.23
2023-05-18T16:31:47.617Z,1.12
2023-05-18T16:34:52.933Z,1.10
2023-05-18T16:37:55.280Z,0.90
2023-05-18T16:40:58.118Z,1.23
2023-05-18T16:44:00.754Z,1.23
2023-05-18T16:47:08.113Z,1.20
2023-05-18T16:50:10.948Z,1.27
2023-05-18T16:53:13.871Z,1.30
2023-05-18T16:56:16.592Z,1.00
2023-05-18T16:59:20.430Z,1.30
2023-05-18T17:02:24.487Z,1.00
2023-05-18T17:05:37.991Z,1.08
2023-05-18T17:08:40.549Z,0.95
2023-05-18T17:11:43.325Z,1.07
2023-05-18T17:14:46.241Z,0.80
2023-05-18T17:17:54.779Z,1.08
2023-05-18T17:21:00.369Z,1.12
2023-05-18T17:24:03.175Z,1.02
2023-05-18T17:27:05.834Z,1.10
2023-05-18T17:30:11.225Z,1.00
2023-05-18T17:33:13.825Z,1.33
2023-05-18T17:36:18.314Z,1.15
2023-05-18T17:39:20.792Z,1.12
2023-05-18T17:42:23.494Z,1.30
2023-05-18T17:45:28.814Z,1.10
2023-05-18T17:48:31.550Z,1.00
2023-05-18T17:51:34.038Z,1.23
2023-05-18T17:54:36.901Z,1.17
2023-05-18T17:57:45.643Z,1.40
2023-05-18T18:00:51.219Z,1.60
2023-05-18T18:03:54.376Z,1.05
2023-05-18T18:06:58.690Z,1.40
2023-05-18T18:10:01.419Z,1.37
2023-05-18T18:13:03.816Z,1.30
2023-05-18T18:16:06.573Z,1.40
2023-05-18T18:19:10.363Z,1.48
2023-05-18T18:22:13.042Z,1.77
2023-05-18T18:25:15.418Z,1.30
2023-05-18T18:28:18.723Z,1.30
2023-05-18T18:31:21.454Z,1.43
2023-05-18T18:34:30.126Z,1.27
2023-05-18T18:37:33.912Z,1.40
2023-05-18T18:40:36.710Z,1.23
2023-05-18T18:43:39.903Z,1.60
2023-05-18T18:46:42.602Z,2.20
2023-05-18T18:49:48.283Z,1.52
2023-05-18T18:52:51.019Z,1.45
2023-05-18T18:55:54.263Z,1.67
2023-05-18T18:58:57.291Z,1.70
2023-05-18T19:02:03.839Z,1.73
2023-05-18T19:05:11.131Z,2.47
2023-05-18T19:08:13.855Z,1.98
2023-05-18T19:11:16.534Z,1.73
2023-05-18T19:14:21.655Z,1.73
2023-05-18T19:17:26.767Z,1.73
2023-05-18T19:20:29.699Z,2.00
2023-05-18T19:23:32.506Z,2.10
2023-05-18T19:26:34.972Z,1.90
2023-05-18T19:29:37.963Z,2.20
2023-05-18T19:32:40.819Z,2.30
2023-05-18T19:35:43.568Z,2.03
2023-05-18T19:38:46.874Z,2.00
2023-05-18T19:41:49.675Z,1.90
2023-05-18T19:44:52.074Z,1.90
2023-05-18T19:47:54.953Z,2.20
2023-05-18T19:50:57.430Z,2.03
2023-05-18T19:54:00.251Z,2.10
2023-05-18T19:57:02.748Z,2.12
2023-05-18T20:00:07.184Z,3.03
2023-05-18T20:03:16.579Z,2.10
2023-05-18T20:06:20.117Z,2.03
2023-05-18T20:09:23.162Z,1.67
2023-05-18T20:12:28.383Z,2.05
2023-05-18T20:15:32.595Z,1.97
2023-05-18T20:18:35.456Z,1.93
2023-05-18T20:21:37.918Z,1.50
2023-05-18T20:24:44.621Z,1.70
2023-05-18T20:27:47.266Z,1.40
2023-05-18T20:30:50.096Z,1.90
2023-05-18T20:33:56.979Z,1.37
2023-05-18T20:36:59.730Z,1.48
2023-05-18T20:40:07.296Z,1.83
2023-05-18T20:43:11.619Z,1.30
2023-05-18T20:46:14.072Z,1.80
2023-05-18T20:49:16.913Z,1.80
2023-05-18T20:52:19.407Z,1.40
2023-05-18T20:55:29.091Z,1.50
2023-05-18T20:58:34.232Z,1.60
2023-05-18T21:01:39.421Z,1.50
2023-05-18T21:04:45.447Z,1.60
2023-05-18T21:07:51.690Z,1.55
2023-05-18T21:10:54.879Z,1.60
2023-05-18T21:13:57.512Z,1.30
2023-05-18T21:17:02.130Z,1.30
2023-05-18T21:20:05.339Z,1.33
2023-05-18T21:23:07.850Z,1.40
2023-05-18T21:26:10.516Z,1.35
2023-05-18T21:29:14.862Z,1.10
2023-05-18T21:32:17.743Z,1.47
2023-05-18T21:35:20.592Z,1.47
2023-05-18T21:38:23.696Z,1.05
2023-05-18T21:41:26.153Z,1.60
2023-05-18T21:44:28.950Z,1.67
2023-05-18T21:47:31.384Z,1.70
2023-05-18T21:50:36.981Z,1.43
2023-05-18T21:53:39.660Z,1.50
2023-05-18T21:56:42.597Z,1.75
2023-05-18T21:59:45.099Z,1.60
2023-05-18T22:02:48.020Z,1.47
2023-05-18T22:05:53.145Z,1.80
2023-05-18T22:08:55.648Z,1.67
2023-05-18T22:11:58.894Z,1.50
2023-05-18T22:15:03.952Z,1.87
2023-05-18T22:18:07.103Z,1.40
2023-05-18T22:21:09.566Z,1.60
2023-05-18T22:24:12.627Z,1.65
2023-05-18T22:27:15.199Z,1.52
2023-05-18T22:30:18.017Z,1.60
2023-05-18T22:33:21.356Z,1.60
2023-05-18T22:36:24.668Z,1.50
2023-05-18T22:39:26.975Z,1.73
2023-05-18T22:42:29.945Z,1.80
2023-05-18T22:45:35.754Z,1.30
2023-05-18T22:48:39.654Z,1.70
2023-05-18T22:51:42.131Z,1.70
2023-05-18T22:54:47.164Z,1.80
2023-05-18T22:57:49.671Z,1.67
2023-05-18T23:00:52.908Z,1.70
2023-05-18T23:03:58.433Z,1.80
2023-05-18T23:07:01.935Z,1.80
2023-05-18T23:10:05.883Z,1.75
2023-05-18T23:13:08.646Z,1.55
2023-05-18T23:16:11.432Z,1.90
2023-05-18T23:19:14.101Z,1.60
2023-05-18T23:22:17.079Z,1.70
2023-05-18T23:25:19.886Z,1.92
2023-05-18T23:28:22.549Z,1.90
2023-05-18T23:31:26.108Z,1.87
2023-05-18T23:34:29.012Z,1.87
2023-05-18T23:37:33.071Z,2.23
2023-05-18T23:40:36.082Z,2.05
2023-05-18T23:43:39.297Z,1.65
2023-05-18T23:46:42.341Z,1.60
2023-05-18T23:49:45.532Z,2.00
2023-05-18T23:52:52.179Z,1.80
2023-05-18T23:55:58.058Z,1.75
2023-05-18T23:59:01.743Z,2.20
